Lorraine, Kansas
Current Conditions -  °F | °C
As of 3:55 AM on Friday 19 Dec 2014 (Local Time) from KGBD Reporting Station
Overcast Overcast  
Wind Chill: -4°   Ceiling: 1500
Heat Index: -1°   Visibility: 3mi
Dew Point: -3°   Wind: 6mph
Humidity: 86%   Direction: 180°S
Pressure: 30.19"   Gusts: NA
Location:  38.57°N, 98.32°W
Report Text: KGBD 190955Z AUTO 18005KT 3SM OVC015 M01/M03 A3019 RMK AO1
Loading
Personal Weather Stations






























Interactive Weather Map New forecast layout! Learn more

10-Day Weather Forecast

Advertisements
Track Severe Weather on mobile